KALX

Details ICAO KALX
Name THOMAS C RUSSELL FLD
Region United States
Timezone America/Chicago (UTC-6.0)
Plans Departing 10
Arriving 12
Stats Elevation 686 ft / 209 m (AMSL)
Location 32.914743° -85.962956°
Runways 1
Magnetic Variation 3.941° W
Sunrise 2017-12-16 12:41:20 UTC / 2017-12-16 06:41:20 Local
Sunset 2017-12-16 22:40:37 UTC / 2017-12-16 16:40:37 Local
Advertisement - Login to hide

Runways

ID Width Length Bearing (true) Bearing (mag) Surface Threshold Offset Overrun Length
18 96 ft / 29 m 5,441 ft / 1,659 m 177.54° 181.48° Asphalt 619 ft / 189 m 0 ft / 0 m
36 96 ft / 29 m 5,441 ft / 1,659 m 357.54° 1.48° Asphalt 0 ft / 0 m 0 ft / 0 m

Map

Weather


0- 5 10 15 20 25 30 35+ Temperature / ° C

Clouds and Precipitation
Forecast for 2017-12-17 00:00 UTC. Updated 2 hours ago

Ground ~20,000 ft ~40,000 ft Winds

METAR

KALX 162255Z AUTO 00000KT 10SM CLR 08/02 A3026 RMK AO2 T00780024

TAF

Not found

Frequencies

Recorded 118.32 MHz AWOS 3
Approach 121.20 MHz MONTGOMERY APP/DEP
Unicom 122.70 MHz CTAF/UNICOM
Warning: Do not use this data for real-world aviation or navigation. No guarantee of current accuracy is given.